To NAV CANADA Home Page Login to a new session Search on AWWS site Feedback and Comments Disclaimer Vers la page française équivalente Tips FAQ What's new on the site To the Forecasts and Observations / NOTAM section To "File a Flight Plan" website Publications and other links Update of the User's profile FIC Telephone Numbers My Weather Data Folder Route Weather Data Regional Weather Data Local Weather Data To the Forecasts and Observations / NOTAM section
Request Generated 09/29/2016 at 04:57:22 UTC . Weather information available at that time is displayed.

METAR/TAF

CLYDE RIVER/NU    (show WxCam)

METAR CYCY 290400Z AUTO 30009KT 9SM CLR M02/M04 A2984 RMK SLP107=
METAR CYCY 290300Z AUTO 31008KT 9SM CLR M01/M03 A2985 RMK SLP113=
METAR CYCY 290200Z AUTO 31011KT 9SM CLR M00/M03 A2987 RMK SLP117=

TAF CYCY 290039Z 2901/2913 30012KT P6SM FEW020 SCT060 TEMPO 2901/2913
BKN020
BECMG 2905/2907 VRB03KT
RMK FCST BASED ON AUTO OBS. NXT FCST BY 290700Z=
Your time UTC time
Weather data provided by Environment Canada and NAV CANADA